createdAt,value
2023-05-16T00:02:14.477Z,46.39
2023-05-16T00:04:42.462Z,46.71
2023-05-16T00:07:10.136Z,46.73
2023-05-16T00:09:37.685Z,46.73
2023-05-16T00:12:06.034Z,46.98
2023-05-16T00:14:34.785Z,47.08
2023-05-16T00:17:05.007Z,47.15
2023-05-16T00:19:32.968Z,47.00
2023-05-16T00:22:00.753Z,47.31
2023-05-16T00:24:28.335Z,47.06
2023-05-16T00:26:55.934Z,47.42
2023-05-16T00:29:24.587Z,47.66
2023-05-16T00:31:52.162Z,47.85
2023-05-16T00:34:21.458Z,47.99
2023-05-16T00:36:52.013Z,48.67
2023-05-16T00:39:19.738Z,48.53
2023-05-16T00:41:47.715Z,48.71
2023-05-16T00:44:15.857Z,48.65
2023-05-16T00:46:44.136Z,48.52
2023-05-16T00:49:12.978Z,48.54
2023-05-16T00:51:41.000Z,48.49
2023-05-16T00:54:08.658Z,48.64
2023-05-16T00:56:37.100Z,48.98
2023-05-16T00:59:04.874Z,49.07
2023-05-16T01:01:35.213Z,48.89
2023-05-16T01:04:03.724Z,48.81
2023-05-16T01:06:31.604Z,48.70
2023-05-16T01:08:59.670Z,48.51
2023-05-16T01:11:31.728Z,49.01
2023-05-16T01:13:59.200Z,49.10
2023-05-16T01:16:37.944Z,49.80
2023-05-16T01:19:53.389Z,50.38
2023-05-16T01:22:34.747Z,50.11
2023-05-16T01:25:17.583Z,50.39
2023-05-16T01:27:46.118Z,49.70
2023-05-16T01:30:16.732Z,49.93
2023-05-16T01:32:44.961Z,50.22
2023-05-16T01:35:16.197Z,50.90
2023-05-16T01:38:11.606Z,51.66
2023-05-16T01:40:44.608Z,50.98
2023-05-16T01:43:17.259Z,51.72
2023-05-16T01:45:53.772Z,52.23
2023-05-16T01:48:31.405Z,52.38
2023-05-16T01:51:02.549Z,51.92
2023-05-16T01:53:37.712Z,52.57
2023-05-16T01:56:14.129Z,52.86
2023-05-16T01:58:43.527Z,52.61
2023-05-16T02:01:13.600Z,53.00
2023-05-16T02:03:41.629Z,52.78
2023-05-16T02:06:09.369Z,52.58
2023-05-16T02:08:37.036Z,52.82
2023-05-16T02:11:04.692Z,52.78
2023-05-16T02:13:32.491Z,52.79
2023-05-16T02:16:05.673Z,52.65
2023-05-16T02:18:33.551Z,53.02
2023-05-16T02:21:01.372Z,52.94
2023-05-16T02:23:29.010Z,53.05
2023-05-16T02:25:56.604Z,53.02
2023-05-16T02:28:24.233Z,53.05
2023-05-16T02:31:00.117Z,53.47
2023-05-16T02:33:29.070Z,52.90
2023-05-16T02:35:56.685Z,52.99
2023-05-16T02:38:27.447Z,52.98
2023-05-16T02:40:56.719Z,52.97
2023-05-16T02:43:24.280Z,52.85
2023-05-16T02:45:53.226Z,52.61
2023-05-16T02:48:21.083Z,52.20
2023-05-16T02:50:48.671Z,52.03
2023-05-16T02:53:16.316Z,51.86
2023-05-16T02:55:43.962Z,51.57
2023-05-16T02:58:11.481Z,51.39
2023-05-16T03:00:39.092Z,51.33
2023-05-16T03:03:06.689Z,50.84
2023-05-16T03:05:34.376Z,50.52
2023-05-16T03:08:01.972Z,50.51
2023-05-16T03:10:29.702Z,50.17
2023-05-16T03:12:57.654Z,49.67
2023-05-16T03:15:25.522Z,49.45
2023-05-16T03:17:53.190Z,49.58
2023-05-16T03:20:21.237Z,49.16
2023-05-16T03:22:49.020Z,48.69
2023-05-16T03:25:16.700Z,48.71
2023-05-16T03:27:44.211Z,48.57
2023-05-16T03:30:13.178Z,48.07
2023-05-16T03:32:41.011Z,47.63
2023-05-16T03:35:09.054Z,47.06
2023-05-16T03:37:37.340Z,46.62
2023-05-16T03:40:05.911Z,46.27
2023-05-16T03:42:33.626Z,45.43
2023-05-16T03:45:01.353Z,44.97
2023-05-16T03:47:32.042Z,44.71
2023-05-16T03:49:59.852Z,44.20
2023-05-16T03:52:27.370Z,43.89
2023-05-16T03:54:54.945Z,43.49
2023-05-16T03:57:22.694Z,43.18
2023-05-16T03:59:50.293Z,42.98
2023-05-16T04:02:18.853Z,42.77
2023-05-16T04:04:46.961Z,42.52
2023-05-16T04:07:14.477Z,41.66
2023-05-16T04:09:42.076Z,41.77
2023-05-16T04:12:09.605Z,41.71
2023-05-16T04:14:37.131Z,41.67
2023-05-16T04:17:05.244Z,41.60
2023-05-16T04:19:32.882Z,41.62
2023-05-16T04:22:00.481Z,41.32
2023-05-16T04:24:29.136Z,41.39
2023-05-16T04:26:56.957Z,41.59
2023-05-16T04:29:24.434Z,41.28
2023-05-16T04:31:52.382Z,41.12
2023-05-16T04:34:20.058Z,41.15
2023-05-16T04:36:47.766Z,41.00
2023-05-16T04:39:15.277Z,40.75
2023-05-16T04:41:43.221Z,40.33
2023-05-16T04:44:11.330Z,40.48
2023-05-16T04:46:39.444Z,40.08
2023-05-16T04:49:07.086Z,40.24
2023-05-16T04:51:35.275Z,39.88
2023-05-16T04:54:03.053Z,39.25
2023-05-16T04:56:30.809Z,39.20
2023-05-16T04:58:58.352Z,38.53
2023-05-16T05:01:25.981Z,38.54
2023-05-16T05:03:53.714Z,37.96
2023-05-16T05:06:21.612Z,37.80
2023-05-16T05:08:49.358Z,37.56
2023-05-16T05:11:17.586Z,37.52
2023-05-16T05:13:45.922Z,36.72
2023-05-16T05:16:13.726Z,36.24
2023-05-16T05:18:41.349Z,36.41
2023-05-16T05:21:08.942Z,36.39
2023-05-16T05:23:36.500Z,35.99
2023-05-16T05:26:04.252Z,35.78
2023-05-16T05:28:31.861Z,35.69
2023-05-16T05:30:59.706Z,35.07
2023-05-16T05:33:29.651Z,34.94
2023-05-16T05:35:57.918Z,34.41
2023-05-16T05:38:25.891Z,34.13
2023-05-16T05:40:53.763Z,33.90
2023-05-16T05:43:21.349Z,33.31
2023-05-16T05:45:49.098Z,33.20
2023-05-16T05:48:16.912Z,32.82
2023-05-16T05:50:44.594Z,32.50
2023-05-16T05:53:12.269Z,32.23
2023-05-16T05:55:42.331Z,31.96
2023-05-16T05:58:09.981Z,32.08
2023-05-16T06:00:38.179Z,31.87
2023-05-16T06:03:06.209Z,31.86
2023-05-16T06:05:33.857Z,31.78
2023-05-16T06:08:01.464Z,31.74
2023-05-16T06:10:29.964Z,31.57
2023-05-16T06:12:57.718Z,31.25
2023-05-16T06:15:26.914Z,31.12
2023-05-16T06:17:54.732Z,31.17
2023-05-16T06:20:22.480Z,30.90
2023-05-16T06:22:49.987Z,30.78
2023-05-16T06:25:17.768Z,30.72
2023-05-16T06:27:45.401Z,30.46
2023-05-16T06:30:13.294Z,30.41
2023-05-16T06:32:41.704Z,30.46
2023-05-16T06:35:09.983Z,29.75
2023-05-16T06:37:37.674Z,29.56
2023-05-16T06:40:05.932Z,29.25
2023-05-16T06:42:34.058Z,28.96
2023-05-16T06:45:01.815Z,28.40
2023-05-16T06:47:34.675Z,27.92
2023-05-16T06:50:02.615Z,27.29
2023-05-16T06:52:32.715Z,26.92
2023-05-16T06:55:00.394Z,26.21
2023-05-16T06:57:29.366Z,25.81
2023-05-16T06:59:57.132Z,25.61
2023-05-16T07:02:24.924Z,25.51
2023-05-16T07:04:52.679Z,25.54
2023-05-16T07:07:20.264Z,25.76
2023-05-16T07:09:47.972Z,25.46
2023-05-16T07:12:15.588Z,24.91
2023-05-16T07:14:43.814Z,24.53
2023-05-16T07:17:11.893Z,24.17
2023-05-16T07:19:39.773Z,23.57
2023-05-16T07:22:07.424Z,22.94
2023-05-16T07:24:36.502Z,22.54
2023-05-16T07:27:04.429Z,22.87
2023-05-16T07:29:32.039Z,21.76
2023-05-16T07:31:59.626Z,21.47
2023-05-16T07:34:27.411Z,21.27
2023-05-16T07:36:54.985Z,20.96
2023-05-16T07:39:22.999Z,20.61
2023-05-16T07:41:50.626Z,19.65
2023-05-16T07:44:18.232Z,19.67
2023-05-16T07:46:46.203Z,19.22
2023-05-16T07:49:13.848Z,19.20
2023-05-16T07:51:41.353Z,19.11
2023-05-16T07:54:09.032Z,19.29
2023-05-16T07:56:36.841Z,19.21
2023-05-16T07:59:06.055Z,18.92
2023-05-16T08:01:33.870Z,18.62
2023-05-16T08:04:01.469Z,18.57
2023-05-16T08:06:29.971Z,17.98
2023-05-16T08:08:57.979Z,18.44
2023-05-16T08:11:25.710Z,17.85
2023-05-16T08:13:53.511Z,18.01
2023-05-16T08:16:21.303Z,17.73
2023-05-16T08:18:48.961Z,17.60
2023-05-16T08:21:16.900Z,16.30
2023-05-16T08:23:44.722Z,16.60
2023-05-16T08:26:12.838Z,16.92
2023-05-16T08:28:40.635Z,16.84
2023-05-16T08:31:08.454Z,17.00
2023-05-16T08:33:36.035Z,16.35
2023-05-16T08:36:03.959Z,16.26
2023-05-16T08:38:31.566Z,15.41
2023-05-16T08:40:59.223Z,15.42
2023-05-16T08:43:26.898Z,15.43
2023-05-16T08:45:54.634Z,15.42
2023-05-16T08:48:24.559Z,15.83
2023-05-16T08:50:53.441Z,15.41
2023-05-16T08:53:31.260Z,14.91
2023-05-16T08:56:00.527Z,15.00
2023-05-16T08:58:30.160Z,14.03
2023-05-16T09:00:58.151Z,13.93
2023-05-16T09:03:26.011Z,13.74
2023-05-16T09:05:53.737Z,13.27
2023-05-16T09:08:21.563Z,13.33
2023-05-16T09:10:49.230Z,13.65
2023-05-16T09:13:17.101Z,13.76
2023-05-16T09:15:45.747Z,13.58
2023-05-16T09:18:16.270Z,13.35
2023-05-16T09:20:50.365Z,13.27
2023-05-16T09:23:24.769Z,13.18
2023-05-16T09:25:56.457Z,13.03
2023-05-16T09:28:26.401Z,13.08
2023-05-16T09:30:55.848Z,12.71
2023-05-16T09:33:24.013Z,12.76
2023-05-16T09:36:01.910Z,12.40
2023-05-16T09:38:29.978Z,12.00
2023-05-16T09:40:57.638Z,12.22
2023-05-16T09:43:28.117Z,11.91
2023-05-16T09:45:59.921Z,11.85
2023-05-16T09:48:28.616Z,11.94
2023-05-16T09:50:57.979Z,12.32
2023-05-16T09:53:30.584Z,12.18
2023-05-16T09:56:06.866Z,11.82
2023-05-16T09:58:36.641Z,11.85
2023-05-16T10:01:06.029Z,12.16
2023-05-16T10:03:39.621Z,12.15
2023-05-16T10:06:08.269Z,12.25
2023-05-16T10:08:37.672Z,12.40
2023-05-16T10:11:07.038Z,11.99
2023-05-16T10:13:36.252Z,11.81
2023-05-16T10:16:11.446Z,11.80
2023-05-16T10:18:40.896Z,10.72
2023-05-16T10:21:13.669Z,10.52
2023-05-16T10:23:48.418Z,10.88
2023-05-16T10:26:17.956Z,10.65
2023-05-16T10:28:46.023Z,11.03
2023-05-16T10:31:14.787Z,11.29
2023-05-16T10:33:42.930Z,11.29
2023-05-16T10:36:11.442Z,11.34
2023-05-16T10:38:40.466Z,11.30
2023-05-16T10:41:08.982Z,11.20
2023-05-16T10:43:36.936Z,11.20
2023-05-16T10:46:10.013Z,10.96
2023-05-16T10:48:39.739Z,11.22
2023-05-16T10:51:22.456Z,11.55
2023-05-16T10:54:06.401Z,11.76
2023-05-16T10:56:35.353Z,11.63
2023-05-16T10:59:04.981Z,11.39
2023-05-16T11:01:36.488Z,11.51
2023-05-16T11:04:10.385Z,11.57
2023-05-16T11:06:41.185Z,11.60
2023-05-16T11:09:22.424Z,11.22
2023-05-16T11:11:53.392Z,11.29
2023-05-16T11:14:42.401Z,11.67
2023-05-16T11:17:15.604Z,12.15
2023-05-16T11:19:51.418Z,12.20
2023-05-16T11:22:19.190Z,12.67
2023-05-16T11:25:09.307Z,12.60
2023-05-16T11:27:43.896Z,12.49
2023-05-16T11:30:16.160Z,12.61
2023-05-16T11:32:46.054Z,12.37
2023-05-16T11:35:16.024Z,12.60
2023-05-16T11:37:45.313Z,12.63
2023-05-16T11:40:14.801Z,12.89
2023-05-16T11:42:44.943Z,12.54
2023-05-16T11:45:21.571Z,12.69
2023-05-16T11:47:49.836Z,12.99
2023-05-16T11:50:23.839Z,13.55
2023-05-16T11:52:54.224Z,13.51
2023-05-16T11:55:40.199Z,13.50
2023-05-16T11:58:10.446Z,12.99
2023-05-16T12:00:48.965Z,13.44
2023-05-16T12:03:18.610Z,13.75
2023-05-16T12:06:00.980Z,14.19
2023-05-16T12:08:28.995Z,14.45
2023-05-16T12:10:56.893Z,14.64
2023-05-16T12:13:25.809Z,14.20
2023-05-16T12:15:53.724Z,14.22
2023-05-16T12:18:22.158Z,14.32
2023-05-16T12:20:50.204Z,14.68
2023-05-16T12:23:17.809Z,15.26
2023-05-16T12:25:47.522Z,15.31
2023-05-16T12:28:16.305Z,16.00
2023-05-16T12:30:46.147Z,16.15
2023-05-16T12:33:16.484Z,16.47
2023-05-16T12:35:45.958Z,16.74
2023-05-16T12:38:15.260Z,17.64
2023-05-16T12:40:44.440Z,18.74
2023-05-16T12:43:23.199Z,19.99
2023-05-16T12:45:58.637Z,20.05
2023-05-16T12:48:35.875Z,20.88
2023-05-16T12:51:17.956Z,21.47
2023-05-16T12:54:05.825Z,21.97
2023-05-16T12:56:40.790Z,21.96
2023-05-16T12:59:09.435Z,22.26
2023-05-16T13:01:37.335Z,22.68
2023-05-16T13:04:05.958Z,23.24
2023-05-16T13:06:48.830Z,23.22
2023-05-16T13:09:18.224Z,23.47
2023-05-16T13:11:46.125Z,23.80
2023-05-16T13:14:13.838Z,24.20
2023-05-16T13:16:41.650Z,24.30
2023-05-16T13:19:09.754Z,24.34
2023-05-16T13:21:37.677Z,24.56
2023-05-16T13:24:05.782Z,24.38
2023-05-16T13:26:33.508Z,24.52
2023-05-16T13:29:03.382Z,24.75
2023-05-16T13:31:31.141Z,24.82
2023-05-16T13:33:59.157Z,24.97
2023-05-16T13:36:27.009Z,25.07
2023-05-16T13:38:55.227Z,25.25
2023-05-16T13:41:22.962Z,25.89
2023-05-16T13:43:50.810Z,25.35
2023-05-16T13:46:18.510Z,25.73
2023-05-16T13:48:46.139Z,25.88
2023-05-16T13:51:13.912Z,25.67
2023-05-16T13:53:41.551Z,26.01
2023-05-16T13:56:09.215Z,26.40
2023-05-16T13:58:43.020Z,26.32
2023-05-16T14:01:21.456Z,26.46
2023-05-16T14:03:49.111Z,26.55
2023-05-16T14:06:16.817Z,26.81
2023-05-16T14:08:44.468Z,26.41
2023-05-16T14:11:12.071Z,26.79
2023-05-16T14:13:40.477Z,26.62
2023-05-16T14:16:10.512Z,27.13
2023-05-16T14:18:38.195Z,27.16
2023-05-16T14:21:07.174Z,27.15
2023-05-16T14:23:36.230Z,27.43
2023-05-16T14:26:06.955Z,27.31
2023-05-16T14:28:35.486Z,27.84
2023-05-16T14:31:03.348Z,27.85
2023-05-16T14:33:33.501Z,28.14
2023-05-16T14:36:04.776Z,28.33
2023-05-16T14:38:36.750Z,28.84
2023-05-16T14:41:04.376Z,28.99
2023-05-16T14:43:32.593Z,28.87
2023-05-16T14:46:00.238Z,28.87
2023-05-16T14:48:28.121Z,28.75
2023-05-16T14:50:55.721Z,28.74
2023-05-16T14:53:24.038Z,28.72
2023-05-16T14:55:51.931Z,28.86
2023-05-16T14:58:23.079Z,29.08
2023-05-16T15:00:51.680Z,29.18
2023-05-16T15:03:20.376Z,29.29
2023-05-16T15:05:48.399Z,29.28
2023-05-16T15:08:16.162Z,29.41
2023-05-16T15:10:43.958Z,29.43
2023-05-16T15:13:11.601Z,29.47
2023-05-16T15:15:39.260Z,29.43
2023-05-16T15:18:07.078Z,29.38
2023-05-16T15:20:34.729Z,29.40
2023-05-16T15:23:02.302Z,29.32
2023-05-16T15:25:30.259Z,29.56
2023-05-16T15:27:58.125Z,29.87
2023-05-16T15:30:25.755Z,29.98
2023-05-16T15:32:53.566Z,30.31
2023-05-16T15:35:21.235Z,30.19
2023-05-16T15:37:48.977Z,30.22
2023-05-16T15:40:19.321Z,30.22
2023-05-16T15:42:48.984Z,30.46
2023-05-16T15:45:16.899Z,30.43
2023-05-16T15:47:44.663Z,30.53
2023-05-16T15:50:13.621Z,30.44
2023-05-16T15:52:41.505Z,30.67
2023-05-16T15:55:09.623Z,30.68
2023-05-16T15:57:37.811Z,30.63
2023-05-16T16:00:06.185Z,30.84
2023-05-16T16:02:40.426Z,30.92
2023-05-16T16:05:08.715Z,31.00
2023-05-16T16:07:36.771Z,31.04
2023-05-16T16:10:04.635Z,31.08
2023-05-16T16:12:32.873Z,31.01
2023-05-16T16:15:02.462Z,31.19
2023-05-16T16:17:33.450Z,31.12
2023-05-16T16:20:01.231Z,30.95
2023-05-16T16:22:29.390Z,30.93
2023-05-16T16:24:57.150Z,31.16
2023-05-16T16:27:24.886Z,31.38
2023-05-16T16:29:52.859Z,31.45
2023-05-16T16:32:20.767Z,31.48
2023-05-16T16:34:48.458Z,31.16
2023-05-16T16:37:16.209Z,31.42
2023-05-16T16:39:43.836Z,31.54
2023-05-16T16:42:11.713Z,31.27
2023-05-16T16:44:39.423Z,31.83
2023-05-16T16:47:07.393Z,31.81
2023-05-16T16:49:35.197Z,31.83
2023-05-16T16:52:02.820Z,31.86
2023-05-16T16:54:30.602Z,32.04
2023-05-16T16:56:58.185Z,31.93
2023-05-16T16:59:25.765Z,31.97
2023-05-16T17:01:53.541Z,32.43
2023-05-16T17:04:21.488Z,32.24
2023-05-16T17:06:49.231Z,32.14
2023-05-16T17:09:18.531Z,32.31
2023-05-16T17:11:46.926Z,32.71
2023-05-16T17:14:15.265Z,32.55
2023-05-16T17:16:43.095Z,32.73
2023-05-16T17:19:11.564Z,32.84
2023-05-16T17:21:40.898Z,33.05
2023-05-16T17:24:08.909Z,33.11
2023-05-16T17:26:36.841Z,33.09
2023-05-16T17:29:06.053Z,33.46
2023-05-16T17:31:38.098Z,33.55
2023-05-16T17:34:08.921Z,33.56
2023-05-16T17:36:37.268Z,33.78
2023-05-16T17:39:08.216Z,33.94
2023-05-16T17:41:36.390Z,33.96
2023-05-16T17:44:07.033Z,34.31
2023-05-16T17:46:37.068Z,34.15
2023-05-16T17:49:07.762Z,34.29
2023-05-16T17:51:52.641Z,34.85
2023-05-16T17:54:22.208Z,34.70
2023-05-16T17:56:51.100Z,34.44
2023-05-16T17:59:19.420Z,34.62
2023-05-16T18:01:47.615Z,34.90
2023-05-16T18:04:15.441Z,34.90
2023-05-16T18:06:44.242Z,34.95
2023-05-16T18:09:12.092Z,35.14
2023-05-16T18:11:40.780Z,35.58
2023-05-16T18:14:14.150Z,35.29
2023-05-16T18:16:41.954Z,35.46
2023-05-16T18:19:14.035Z,35.93
2023-05-16T18:21:44.464Z,35.71
2023-05-16T18:24:13.259Z,35.69
2023-05-16T18:26:41.027Z,35.75
2023-05-16T18:29:10.746Z,35.90
2023-05-16T18:31:41.324Z,36.09
2023-05-16T18:34:09.744Z,36.00
2023-05-16T18:36:37.561Z,36.13
2023-05-16T18:39:05.731Z,36.37
2023-05-16T18:41:33.444Z,36.63
2023-05-16T18:44:02.269Z,36.44
2023-05-16T18:46:44.301Z,36.91
2023-05-16T18:49:13.689Z,36.53
2023-05-16T18:51:41.591Z,36.90
2023-05-16T18:54:09.603Z,36.92
2023-05-16T18:56:37.290Z,37.06
2023-05-16T18:59:05.144Z,36.92
2023-05-16T19:01:33.087Z,37.21
2023-05-16T19:04:01.052Z,37.10
2023-05-16T19:06:29.017Z,37.39
2023-05-16T19:08:56.686Z,37.43
2023-05-16T19:11:24.326Z,37.32
2023-05-16T19:13:51.962Z,37.49
2023-05-16T19:16:19.567Z,37.43
2023-05-16T19:18:47.394Z,37.60
2023-05-16T19:21:15.870Z,37.63
2023-05-16T19:23:44.287Z,37.67
2023-05-16T19:26:11.992Z,37.83
2023-05-16T19:28:40.959Z,37.95
2023-05-16T19:31:10.153Z,38.20
2023-05-16T19:33:38.216Z,38.02
2023-05-16T19:36:06.424Z,38.30
2023-05-16T19:38:34.040Z,38.36
2023-05-16T19:41:01.869Z,38.21
2023-05-16T19:43:29.925Z,38.53
2023-05-16T19:45:58.283Z,38.58
2023-05-16T19:48:26.663Z,38.48
2023-05-16T19:50:54.391Z,38.43
2023-05-16T19:53:22.620Z,38.54
2023-05-16T19:55:50.363Z,38.69
2023-05-16T19:58:18.175Z,38.81
2023-05-16T20:00:47.128Z,38.71
2023-05-16T20:03:14.839Z,38.88
2023-05-16T20:05:42.904Z,38.97
2023-05-16T20:08:12.698Z,39.25
2023-05-16T20:10:42.412Z,39.24
2023-05-16T20:13:10.918Z,39.26
2023-05-16T20:15:38.703Z,39.26
2023-05-16T20:18:06.789Z,39.41
2023-05-16T20:20:34.863Z,39.54
2023-05-16T20:23:02.819Z,39.50
2023-05-16T20:25:32.197Z,39.55
2023-05-16T20:28:00.102Z,39.98
2023-05-16T20:30:28.523Z,39.68
2023-05-16T20:32:56.607Z,39.66
2023-05-16T20:35:24.817Z,40.00
2023-05-16T20:37:52.434Z,39.84
2023-05-16T20:40:20.540Z,39.90
2023-05-16T20:42:49.495Z,40.09
2023-05-16T20:45:17.309Z,40.21
2023-05-16T20:47:45.231Z,40.16
2023-05-16T20:50:13.028Z,40.14
2023-05-16T20:52:40.661Z,40.24
2023-05-16T20:55:09.152Z,40.28
2023-05-16T20:57:36.791Z,40.56
2023-05-16T21:00:05.360Z,40.33
2023-05-16T21:02:37.960Z,40.63
2023-05-16T21:05:20.186Z,40.41
2023-05-16T21:07:52.989Z,40.68
2023-05-16T21:10:20.871Z,40.75
2023-05-16T21:12:50.323Z,40.81
2023-05-16T21:15:18.414Z,40.82
2023-05-16T21:17:46.637Z,40.99
2023-05-16T21:20:14.385Z,40.77
2023-05-16T21:22:42.665Z,40.69
2023-05-16T21:25:10.535Z,40.98
2023-05-16T21:27:38.488Z,41.07
2023-05-16T21:30:07.004Z,41.16
2023-05-16T21:32:34.745Z,41.16
2023-05-16T21:35:04.365Z,40.99
2023-05-16T21:37:34.148Z,41.17
2023-05-16T21:40:02.097Z,41.26
2023-05-16T21:42:32.375Z,41.45
2023-05-16T21:45:00.150Z,41.71
2023-05-16T21:47:27.826Z,41.96
2023-05-16T21:49:55.520Z,41.92
2023-05-16T21:52:23.182Z,42.04
2023-05-16T21:54:52.046Z,42.48
2023-05-16T21:57:20.070Z,42.36
2023-05-16T21:59:50.638Z,42.50
2023-05-16T22:02:22.915Z,42.57
2023-05-16T22:04:52.439Z,42.71
2023-05-16T22:07:20.447Z,42.64
2023-05-16T22:09:50.974Z,42.66
2023-05-16T22:12:18.740Z,42.90
2023-05-16T22:14:46.420Z,43.26
2023-05-16T22:17:14.078Z,43.04
2023-05-16T22:19:42.550Z,43.60
2023-05-16T22:22:11.420Z,43.48
2023-05-16T22:24:39.080Z,43.57
2023-05-16T22:27:06.810Z,43.39
2023-05-16T22:29:38.300Z,43.34
2023-05-16T22:32:10.829Z,44.05
2023-05-16T22:34:41.676Z,43.59
2023-05-16T22:37:10.011Z,44.16
2023-05-16T22:39:37.719Z,44.04
2023-05-16T22:42:05.694Z,44.11
2023-05-16T22:44:33.416Z,44.22
2023-05-16T22:47:00.922Z,44.29
2023-05-16T22:49:28.553Z,44.16
2023-05-16T22:51:56.268Z,44.17
2023-05-16T22:54:23.895Z,44.26
2023-05-16T22:56:51.673Z,44.48
2023-05-16T22:59:19.340Z,44.49
2023-05-16T23:01:46.964Z,44.29
2023-05-16T23:04:14.602Z,44.54
2023-05-16T23:06:42.159Z,44.59
2023-05-16T23:09:09.845Z,44.57
2023-05-16T23:11:37.405Z,44.92
2023-05-16T23:14:05.158Z,44.98
2023-05-16T23:16:32.733Z,44.80
2023-05-16T23:19:00.505Z,44.87
2023-05-16T23:21:28.284Z,44.88
2023-05-16T23:23:55.922Z,44.82
2023-05-16T23:26:23.533Z,45.34
2023-05-16T23:28:51.583Z,45.24
2023-05-16T23:31:19.346Z,45.22
2023-05-16T23:33:47.076Z,45.48
2023-05-16T23:36:14.671Z,45.41
2023-05-16T23:38:42.374Z,45.34
2023-05-16T23:41:09.957Z,45.22
2023-05-16T23:43:37.659Z,45.20
2023-05-16T23:46:05.407Z,45.29
2023-05-16T23:48:33.312Z,45.09
2023-05-16T23:51:01.209Z,45.02
2023-05-16T23:53:31.145Z,45.10
2023-05-16T23:55:58.758Z,45.32
2023-05-16T23:58:26.495Z,45.23
